createdAt,value
2019-05-23T00:02:29.886Z,65.73
2019-05-23T00:05:25.957Z,66.19
2019-05-23T00:08:14.159Z,66.90
2019-05-23T00:10:54.205Z,66.90
2019-05-23T00:13:45.612Z,65.87
2019-05-23T00:16:18.264Z,65.93
2019-05-23T00:18:48.681Z,65.45
2019-05-23T00:21:20.021Z,66.26
2019-05-23T00:23:50.236Z,66.76
2019-05-23T00:26:19.884Z,65.46
2019-05-23T00:28:50.283Z,66.48
2019-05-23T00:34:16.598Z,65.94
2019-05-23T00:36:46.236Z,66.60
2019-05-23T00:39:16.861Z,66.70
2019-05-23T00:41:47.996Z,67.32
2019-05-23T00:44:18.014Z,68.16
2019-05-23T00:46:48.742Z,66.43
2019-05-23T00:49:19.908Z,67.66
2019-05-23T00:51:49.471Z,67.33
2019-05-23T00:54:19.565Z,66.69
2019-05-23T00:56:49.577Z,65.86
2019-05-23T00:59:27.162Z,66.59
2019-05-23T01:01:50.796Z,67.86
2019-05-23T01:04:31.401Z,67.19
2019-05-23T01:07:02.236Z,67.06
2019-05-23T01:09:32.585Z,67.15
2019-05-23T01:12:02.248Z,66.76
2019-05-23T01:14:31.771Z,66.50
2019-05-23T01:17:01.899Z,67.85
2019-05-23T01:19:32.146Z,69.21
2019-05-23T01:22:03.910Z,67.00
2019-05-23T01:24:40.900Z,68.55
2019-05-23T01:27:10.925Z,68.55
2019-05-23T01:29:49.482Z,68.86
2019-05-23T01:32:20.161Z,69.28
2019-05-23T01:34:49.794Z,68.33
2019-05-23T01:37:19.803Z,68.86
2019-05-23T01:39:49.705Z,68.45
2019-05-23T01:42:19.925Z,68.07
2019-05-23T01:44:49.611Z,69.51
2019-05-23T01:47:20.139Z,68.56
2019-05-23T01:49:49.790Z,67.47
2019-05-23T01:52:19.259Z,67.33
2019-05-23T01:54:48.872Z,67.66
2019-05-23T01:57:18.681Z,63.06
2019-05-23T01:59:48.303Z,65.23
2019-05-23T02:02:19.200Z,69.35
2019-05-23T02:04:49.037Z,69.35
2019-05-23T02:07:19.780Z,67.42
2019-05-23T02:09:49.208Z,67.42
2019-05-23T02:12:19.252Z,67.46
2019-05-23T02:14:49.855Z,68.77
2019-05-23T02:17:19.300Z,68.37
2019-05-23T02:19:49.329Z,68.88
2019-05-23T02:22:19.089Z,67.18
2019-05-23T02:24:48.804Z,68.36
2019-05-23T02:27:20.307Z,68.19
2019-05-23T02:29:49.681Z,68.73
2019-05-23T02:32:19.084Z,68.89
2019-05-23T02:34:49.124Z,68.30
2019-05-23T02:37:32.606Z,67.76
2019-05-23T02:40:10.354Z,66.07
2019-05-23T02:42:47.259Z,66.61
2019-05-23T02:45:27.351Z,66.70
2019-05-23T02:47:58.269Z,68.25
2019-05-23T02:50:31.185Z,68.84
2019-05-23T02:53:02.987Z,68.77
2019-05-23T02:55:38.834Z,69.25
2019-05-23T02:58:20.878Z,70.29
2019-05-23T03:00:55.785Z,71.39
2019-05-23T03:03:28.241Z,71.47
2019-05-23T03:05:59.499Z,70.60
2019-05-23T03:08:31.909Z,69.11
2019-05-23T03:11:17.634Z,69.42
2019-05-23T03:13:48.123Z,69.90
2019-05-23T03:16:24.031Z,70.48
2019-05-23T03:19:13.994Z,70.79
2019-05-23T03:21:43.820Z,71.36
2019-05-23T03:24:13.759Z,70.83
2019-05-23T03:27:00.174Z,71.39
2019-05-23T03:29:31.458Z,71.32
2019-05-23T03:32:05.583Z,72.53
2019-05-23T03:34:39.144Z,72.02
2019-05-23T03:37:09.874Z,72.06
2019-05-23T03:39:39.882Z,72.62
2019-05-23T03:42:10.681Z,72.82
2019-05-23T03:44:40.527Z,72.82
2019-05-23T03:47:11.538Z,73.03
2019-05-23T03:49:42.256Z,72.34
2019-05-23T03:52:15.022Z,71.07
2019-05-23T03:54:46.860Z,71.56
2019-05-23T03:57:16.913Z,68.49
2019-05-23T03:59:46.725Z,70.42
2019-05-23T04:02:17.928Z,70.97
2019-05-23T04:04:48.013Z,71.21
2019-05-23T04:07:18.152Z,72.23
2019-05-23T04:09:47.704Z,73.45
2019-05-23T04:12:17.533Z,72.31
2019-05-23T04:14:47.399Z,72.00
2019-05-23T04:17:16.857Z,71.66
2019-05-23T04:19:49.244Z,72.18
2019-05-23T04:22:19.221Z,69.17
2019-05-23T04:24:48.970Z,71.09
2019-05-23T04:27:19.635Z,71.65
2019-05-23T04:29:49.034Z,71.96
2019-05-23T04:32:18.831Z,71.72
2019-05-23T04:34:49.044Z,72.12
2019-05-23T04:37:18.602Z,72.78
2019-05-23T04:39:48.068Z,72.88
2019-05-23T04:42:17.441Z,73.35
2019-05-23T04:44:46.841Z,74.95
2019-05-23T04:47:16.674Z,74.44
2019-05-23T04:49:46.510Z,73.56
2019-05-23T04:52:16.517Z,72.37
2019-05-23T04:54:46.066Z,72.07
2019-05-23T04:57:18.236Z,71.83
2019-05-23T04:59:48.773Z,72.90
2019-05-23T05:02:26.172Z,75.56
2019-05-23T05:04:52.522Z,73.45
2019-05-23T05:07:22.375Z,71.23
2019-05-23T05:09:52.509Z,72.13
2019-05-23T05:12:22.400Z,71.53
2019-05-23T05:14:51.914Z,72.92
2019-05-23T05:17:21.655Z,73.30
2019-05-23T05:19:51.034Z,74.08
2019-05-23T05:22:20.412Z,70.31
2019-05-23T05:24:49.816Z,73.01
2019-05-23T05:27:19.626Z,72.07
2019-05-23T05:29:49.113Z,70.10
2019-05-23T05:32:18.735Z,68.85
2019-05-23T05:34:49.042Z,70.10
2019-05-23T05:37:18.478Z,71.95
2019-05-23T05:39:48.565Z,70.70
2019-05-23T05:42:18.133Z,64.32
2019-05-23T05:44:47.504Z,58.61
2019-05-23T05:47:17.111Z,54.18
2019-05-23T05:49:46.728Z,53.09
2019-05-23T05:52:16.813Z,53.98
2019-05-23T05:54:46.188Z,57.26
2019-05-23T05:57:16.236Z,62.54
2019-05-23T05:59:45.706Z,63.26
2019-05-23T06:02:16.730Z,61.63
2019-05-23T06:04:46.427Z,62.42
2019-05-23T06:07:35.791Z,51.75
2019-05-23T06:10:07.933Z,48.40
2019-05-23T06:12:38.425Z,52.39
2019-05-23T06:15:08.421Z,51.08
2019-05-23T06:17:38.506Z,53.05
2019-05-23T06:20:09.799Z,55.41
2019-05-23T06:22:41.000Z,57.87
2019-05-23T06:25:12.401Z,54.93
2019-05-23T06:27:42.421Z,54.34
2019-05-23T06:30:13.640Z,55.33
2019-05-23T06:32:43.180Z,54.84
2019-05-23T06:35:14.474Z,58.84
2019-05-23T06:37:43.945Z,56.43
2019-05-23T06:40:14.925Z,54.85
2019-05-23T06:42:45.515Z,58.34
2019-05-23T06:45:16.674Z,57.00
2019-05-23T06:47:46.198Z,55.11
2019-05-23T06:50:19.228Z,56.08
2019-05-23T06:52:48.714Z,58.68
2019-05-23T06:55:18.287Z,59.04
2019-05-23T06:57:47.634Z,59.20
2019-05-23T07:00:19.236Z,57.73
2019-05-23T07:02:49.252Z,56.46
2019-05-23T07:05:22.277Z,59.65
2019-05-23T07:07:51.819Z,61.23
2019-05-23T07:10:23.036Z,61.27
2019-05-23T07:12:52.596Z,61.77
2019-05-23T07:15:22.333Z,60.20
2019-05-23T07:17:52.249Z,60.43
2019-05-23T07:20:22.346Z,61.39
2019-05-23T07:22:51.794Z,60.28
2019-05-23T07:25:22.375Z,60.50
2019-05-23T07:27:52.205Z,62.01
2019-05-23T07:30:26.875Z,62.42
2019-05-23T07:32:57.661Z,59.94
2019-05-23T07:35:27.378Z,63.50
2019-05-23T07:37:57.327Z,64.69
2019-05-23T07:40:27.937Z,61.47
2019-05-23T07:42:57.486Z,63.12
2019-05-23T07:45:31.290Z,64.25
2019-05-23T07:48:00.766Z,59.52
2019-05-23T07:50:30.417Z,59.59
2019-05-23T07:53:00.257Z,59.48
2019-05-23T07:55:31.278Z,58.41
2019-05-23T07:58:00.827Z,51.81
2019-05-23T08:00:32.022Z,53.78
2019-05-23T08:03:04.170Z,56.86
2019-05-23T08:05:34.355Z,55.36
2019-05-23T08:08:04.807Z,54.92
2019-05-23T08:10:34.737Z,54.81
2019-05-23T08:13:04.307Z,52.71
2019-05-23T08:15:33.686Z,45.52
2019-05-23T08:18:03.802Z,46.32
2019-05-23T08:20:33.525Z,42.79
2019-05-23T08:23:02.964Z,43.66
2019-05-23T08:25:32.699Z,38.67
2019-05-23T08:28:02.539Z,34.23
2019-05-23T08:30:32.343Z,31.74
2019-05-23T08:33:03.099Z,36.77
2019-05-23T08:35:32.600Z,34.12
2019-05-23T08:38:02.427Z,39.06
2019-05-23T08:40:33.257Z,39.07
2019-05-23T08:43:03.376Z,37.06
2019-05-23T08:45:33.403Z,36.03
2019-05-23T08:48:03.222Z,35.99
2019-05-23T08:50:34.451Z,37.30
2019-05-23T08:53:04.083Z,34.69
2019-05-23T08:55:34.411Z,40.59
2019-05-23T08:58:05.771Z,35.84
2019-05-23T09:00:39.844Z,40.47
2019-05-23T09:03:10.324Z,38.94
2019-05-23T09:05:40.341Z,34.23
2019-05-23T09:08:11.556Z,31.60
2019-05-23T09:10:41.941Z,31.36
2019-05-23T09:13:12.742Z,35.69
2019-05-23T09:15:42.275Z,30.97
2019-05-23T09:18:12.471Z,33.60
2019-05-23T09:20:42.286Z,33.30
2019-05-23T09:23:12.025Z,32.97
2019-05-23T09:25:41.415Z,31.22
2019-05-23T09:28:12.505Z,31.48
2019-05-23T09:30:41.946Z,30.79
2019-05-23T09:33:12.448Z,32.31
2019-05-23T09:35:42.315Z,30.54
2019-05-23T09:38:11.801Z,28.47
2019-05-23T09:40:41.170Z,32.82
2019-05-23T09:43:11.686Z,30.46
2019-05-23T09:45:41.220Z,31.04
2019-05-23T09:48:10.666Z,33.72
2019-05-23T09:50:40.049Z,33.63
2019-05-23T09:53:09.672Z,32.89
2019-05-23T09:55:39.282Z,31.75
2019-05-23T09:58:08.830Z,29.60
2019-05-23T10:00:39.316Z,27.13
2019-05-23T10:03:09.668Z,26.55
2019-05-23T10:05:43.190Z,27.93
2019-05-23T10:08:10.997Z,28.75
2019-05-23T10:10:40.602Z,31.35
2019-05-23T10:13:10.464Z,30.66
2019-05-23T10:15:50.967Z,27.26
2019-05-23T10:18:22.314Z,27.55
2019-05-23T10:20:51.779Z,27.06
2019-05-23T10:23:21.572Z,28.76
2019-05-23T10:25:51.125Z,26.78
2019-05-23T10:28:20.520Z,27.13
2019-05-23T10:30:49.933Z,24.58
2019-05-23T10:33:19.425Z,23.82
2019-05-23T10:35:59.938Z,26.95
2019-05-23T10:38:20.177Z,26.13
2019-05-23T10:40:50.976Z,22.38
2019-05-23T10:43:20.814Z,24.64
2019-05-23T10:45:50.528Z,27.14
2019-05-23T10:48:21.226Z,25.10
2019-05-23T10:50:50.916Z,24.17
2019-05-23T10:53:20.311Z,21.65
2019-05-23T10:55:49.694Z,24.06
2019-05-23T10:58:19.580Z,26.44
2019-05-23T11:00:50.777Z,25.15
2019-05-23T11:03:21.265Z,25.54
2019-05-23T11:05:50.788Z,25.10
2019-05-23T11:08:20.947Z,24.06
2019-05-23T11:10:50.372Z,25.06
2019-05-23T11:13:19.931Z,23.86
2019-05-23T11:15:49.501Z,28.91
2019-05-23T11:18:19.120Z,27.12
2019-05-23T11:20:49.127Z,27.99
2019-05-23T11:23:29.411Z,30.21
2019-05-23T11:26:01.426Z,28.48
2019-05-23T11:28:31.608Z,28.04
2019-05-23T11:31:00.985Z,29.30
2019-05-23T11:33:30.432Z,28.80
2019-05-23T11:35:59.813Z,27.60
2019-05-23T11:38:30.082Z,26.79
2019-05-23T11:40:59.518Z,30.91
2019-05-23T11:43:28.985Z,28.24
2019-05-23T11:46:02.900Z,31.87
2019-05-23T11:48:33.156Z,29.11
2019-05-23T11:51:02.601Z,30.68
2019-05-23T11:53:32.388Z,28.83
2019-05-23T11:56:02.143Z,30.84
2019-05-23T11:58:32.889Z,28.73
2019-05-23T12:01:20.829Z,28.09
2019-05-23T12:03:48.239Z,29.85
2019-05-23T12:06:18.877Z,23.65
2019-05-23T12:08:48.787Z,21.35
2019-05-23T12:11:19.599Z,24.58
2019-05-23T12:13:49.127Z,22.92
2019-05-23T12:16:19.439Z,20.63
2019-05-23T12:18:49.582Z,20.27
2019-05-23T12:21:19.940Z,24.57
2019-05-23T12:23:49.823Z,21.36
2019-05-23T12:26:19.951Z,23.77
2019-05-23T12:28:50.462Z,25.25
2019-05-23T12:31:20.766Z,23.37
2019-05-23T12:33:50.660Z,22.79
2019-05-23T12:36:21.216Z,23.28
2019-05-23T12:38:51.169Z,22.10
2019-05-23T12:41:21.473Z,20.43
2019-05-23T12:43:51.946Z,22.42
2019-05-23T12:46:21.889Z,23.22
2019-05-23T12:48:53.982Z,24.49
2019-05-23T12:51:37.388Z,22.36
2019-05-23T12:54:07.988Z,21.64
2019-05-23T12:56:37.371Z,25.31
2019-05-23T12:59:07.090Z,25.41
2019-05-23T13:01:38.189Z,24.84
2019-05-23T13:06:59.320Z,22.60
2019-05-23T13:09:29.169Z,24.52
2019-05-23T13:11:58.724Z,23.87
2019-05-23T13:14:29.240Z,23.67
2019-05-23T13:17:01.029Z,23.42
2019-05-23T13:19:30.191Z,22.96
2019-05-23T13:21:59.582Z,22.78
2019-05-23T13:24:29.547Z,23.91
2019-05-23T13:26:59.004Z,24.23
2019-05-23T13:29:29.139Z,24.14
2019-05-23T13:31:59.091Z,22.43
2019-05-23T13:34:28.990Z,22.90
2019-05-23T13:36:58.818Z,24.13
2019-05-23T13:39:28.909Z,25.98
2019-05-23T13:41:59.436Z,25.00
2019-05-23T13:44:35.074Z,23.40
2019-05-23T13:47:00.369Z,22.84
2019-05-23T13:49:30.323Z,23.45
2019-05-23T13:52:00.029Z,24.64
2019-05-23T13:54:30.001Z,22.42
2019-05-23T13:57:00.023Z,23.79
2019-05-23T13:59:30.295Z,26.00
2019-05-23T14:02:00.533Z,24.27
2019-05-23T14:04:30.565Z,24.77
2019-05-23T14:07:00.416Z,26.17
2019-05-23T14:09:31.548Z,24.53
2019-05-23T14:12:19.897Z,23.81
2019-05-23T14:14:32.312Z,24.36
2019-05-23T14:17:15.181Z,25.64
2019-05-23T14:19:44.568Z,26.54
2019-05-23T14:22:14.193Z,24.92
2019-05-23T14:24:43.638Z,24.18
2019-05-23T14:27:27.134Z,25.91
2019-05-23T14:30:23.411Z,23.95
2019-05-23T14:32:54.429Z,23.08
2019-05-23T14:35:28.521Z,22.94
2019-05-23T14:37:59.527Z,24.09
2019-05-23T14:40:31.885Z,26.03
2019-05-23T14:43:04.434Z,25.32
2019-05-23T14:45:35.649Z,25.06
2019-05-23T14:48:21.782Z,25.11
2019-05-23T14:51:05.216Z,24.86
2019-05-23T14:53:36.896Z,26.55
2019-05-23T14:56:06.864Z,26.01
2019-05-23T14:58:36.472Z,26.27
2019-05-23T15:01:07.361Z,26.46
2019-05-23T15:03:36.873Z,27.04
2019-05-23T15:06:06.705Z,27.58
2019-05-23T15:08:50.611Z,28.32
2019-05-23T15:11:07.644Z,29.43
2019-05-23T15:13:37.509Z,28.79
2019-05-23T15:16:07.154Z,27.58
2019-05-23T15:18:36.556Z,28.37
2019-05-23T15:21:06.535Z,26.62
2019-05-23T15:23:36.295Z,27.20
2019-05-23T15:26:21.438Z,27.20
2019-05-23T15:28:37.419Z,28.76
2019-05-23T15:31:07.580Z,27.02
2019-05-23T15:33:37.026Z,26.93
2019-05-23T15:36:07.923Z,27.00
2019-05-23T15:38:37.381Z,28.62
2019-05-23T15:41:07.183Z,26.38
2019-05-23T15:43:37.475Z,26.66
2019-05-23T15:46:07.544Z,26.51
2019-05-23T15:51:06.210Z,29.71
2019-05-23T15:53:37.237Z,28.15
2019-05-23T15:56:27.722Z,29.65
2019-05-23T15:59:09.299Z,30.73
2019-05-23T16:01:56.846Z,29.21
2019-05-23T16:04:27.541Z,29.26
2019-05-23T16:06:57.925Z,29.36
2019-05-23T16:09:30.765Z,29.32
2019-05-23T16:11:59.594Z,28.35
2019-05-23T16:14:29.619Z,28.07
2019-05-23T16:16:59.677Z,30.91
2019-05-23T16:19:29.559Z,29.57
2019-05-23T16:22:00.148Z,29.59
2019-05-23T16:24:30.522Z,30.17
2019-05-23T16:27:00.156Z,29.06
2019-05-23T16:29:30.256Z,30.69
2019-05-23T16:31:59.714Z,31.26
2019-05-23T16:34:30.344Z,29.81
2019-05-23T16:36:59.980Z,30.24
2019-05-23T16:39:46.040Z,31.39
2019-05-23T16:42:01.528Z,29.92
2019-05-23T16:44:30.973Z,31.41
2019-05-23T16:47:00.453Z,31.09
2019-05-23T16:49:29.882Z,31.06
2019-05-23T16:52:00.029Z,31.98
2019-05-23T16:54:31.488Z,30.23
2019-05-23T16:57:02.672Z,31.87
2019-05-23T16:59:42.674Z,32.23
2019-05-23T17:02:30.049Z,31.44
2019-05-23T17:05:11.943Z,33.60
2019-05-23T17:07:53.457Z,33.48
2019-05-23T17:10:30.354Z,33.33
2019-05-23T17:13:01.525Z,33.22
2019-05-23T17:15:38.519Z,33.97
2019-05-23T17:18:09.618Z,34.10
2019-05-23T17:20:56.600Z,34.01
2019-05-23T17:23:36.425Z,33.59
2019-05-23T17:26:13.105Z,33.88
2019-05-23T17:28:44.290Z,33.73
2019-05-23T17:31:15.334Z,34.98
2019-05-23T17:33:45.530Z,34.70
2019-05-23T17:36:14.976Z,34.13
2019-05-23T17:38:44.468Z,36.17
2019-05-23T17:41:14.744Z,34.38
2019-05-23T17:43:44.142Z,35.63
2019-05-23T17:46:13.578Z,35.33
2019-05-23T17:48:42.965Z,33.85
2019-05-23T17:51:12.649Z,36.04
2019-05-23T17:53:42.294Z,36.23
2019-05-23T17:56:11.687Z,35.58
2019-05-23T17:58:41.798Z,36.30
2019-05-23T18:01:11.537Z,37.10
2019-05-23T18:03:41.075Z,35.47
2019-05-23T18:06:10.528Z,35.33
2019-05-23T18:08:39.915Z,38.46
2019-05-23T18:11:09.301Z,37.72
2019-05-23T18:13:39.373Z,38.65
2019-05-23T18:16:09.132Z,37.60
2019-05-23T18:18:38.672Z,39.20
2019-05-23T18:21:08.328Z,39.37
2019-05-23T18:23:38.353Z,38.96
2019-05-23T18:26:07.925Z,40.25
2019-05-23T18:28:37.373Z,40.14
2019-05-23T18:31:11.094Z,42.29
2019-05-23T18:33:41.623Z,44.06
2019-05-23T18:36:11.389Z,44.66
2019-05-23T18:38:41.312Z,45.28
2019-05-23T18:41:11.615Z,43.88
2019-05-23T18:43:42.422Z,43.56
2019-05-23T18:46:19.819Z,44.50
2019-05-23T18:48:49.381Z,46.09
2019-05-23T18:51:18.772Z,45.42
2019-05-23T18:53:48.560Z,44.94
2019-05-23T18:56:18.054Z,45.39
2019-05-23T18:58:47.633Z,45.64
2019-05-23T19:01:18.675Z,48.29
2019-05-23T19:03:48.219Z,47.84
2019-05-23T19:06:18.038Z,47.72
2019-05-23T19:08:47.843Z,47.30
2019-05-23T19:11:21.120Z,47.64
2019-05-23T19:13:48.507Z,48.27
2019-05-23T19:16:17.930Z,48.61
2019-05-23T19:18:48.013Z,48.64
2019-05-23T19:21:18.210Z,48.07
2019-05-23T19:23:47.663Z,48.32
2019-05-23T19:26:18.511Z,47.55
2019-05-23T19:28:48.138Z,48.88
2019-05-23T19:31:17.610Z,48.93
2019-05-23T19:33:48.070Z,48.17
2019-05-23T19:36:18.154Z,48.29
2019-05-23T19:38:47.698Z,48.25
2019-05-23T19:41:17.312Z,48.81
2019-05-23T19:43:48.215Z,47.40
2019-05-23T19:46:18.470Z,49.26
2019-05-23T19:48:48.499Z,49.66
2019-05-23T19:51:18.717Z,49.90
2019-05-23T19:53:48.455Z,48.74
2019-05-23T19:56:18.983Z,50.13
2019-05-23T19:58:48.443Z,49.41
2019-05-23T20:01:18.622Z,49.61
2019-05-23T20:03:48.065Z,48.81
2019-05-23T20:06:17.750Z,49.79
2019-05-23T20:08:48.077Z,50.18
2019-05-23T20:11:17.656Z,50.26
2019-05-23T20:13:47.355Z,50.21
2019-05-23T20:16:17.236Z,50.65
2019-05-23T20:18:46.619Z,50.38
2019-05-23T20:21:17.048Z,50.29
2019-05-23T20:23:46.490Z,50.72
2019-05-23T20:26:16.405Z,50.08
2019-05-23T20:28:45.876Z,51.66
2019-05-23T20:31:15.665Z,52.43
2019-05-23T20:33:45.611Z,51.99
2019-05-23T20:36:17.822Z,51.87
2019-05-23T20:38:47.353Z,52.44
2019-05-23T20:41:18.091Z,53.81
2019-05-23T20:43:47.879Z,52.33
2019-05-23T20:46:17.643Z,52.01
2019-05-23T20:48:47.161Z,52.74
2019-05-23T20:51:16.818Z,52.44
2019-05-23T20:53:46.659Z,52.67
2019-05-23T20:56:16.203Z,51.85
2019-05-23T20:58:45.678Z,51.62
2019-05-23T21:01:16.828Z,52.05
2019-05-23T21:03:46.728Z,52.57
2019-05-23T21:06:16.315Z,52.51
2019-05-23T21:08:45.778Z,52.36
2019-05-23T21:11:15.187Z,53.50
2019-05-23T21:13:44.601Z,52.98
2019-05-23T21:16:13.986Z,53.29
2019-05-23T21:18:43.542Z,52.31
2019-05-23T21:21:13.370Z,52.36
2019-05-23T21:23:42.772Z,52.59
2019-05-23T21:26:12.216Z,53.15
2019-05-23T21:28:42.258Z,55.06
2019-05-23T21:31:14.086Z,55.60
2019-05-23T21:33:43.688Z,56.07
2019-05-23T21:36:13.132Z,55.04
2019-05-23T21:38:43.311Z,56.05
2019-05-23T21:41:13.837Z,56.11
2019-05-23T21:43:44.167Z,55.94
2019-05-23T21:46:14.081Z,55.98
2019-05-23T21:48:44.186Z,55.91
2019-05-23T21:51:14.449Z,56.33
2019-05-23T21:53:44.670Z,56.02
2019-05-23T21:56:14.915Z,57.32
2019-05-23T21:58:45.208Z,57.80
2019-05-23T22:01:19.516Z,58.43
2019-05-23T22:03:50.859Z,58.25
2019-05-23T22:06:23.414Z,58.54
2019-05-23T22:08:53.170Z,59.26
2019-05-23T22:11:22.728Z,59.05
2019-05-23T22:13:52.279Z,59.50
2019-05-23T22:16:22.076Z,58.76
2019-05-23T22:18:51.530Z,59.46
2019-05-23T22:21:21.089Z,59.94
2019-05-23T22:23:50.712Z,60.60
2019-05-23T22:26:20.453Z,60.12
2019-05-23T22:28:49.845Z,60.06
2019-05-23T22:31:20.065Z,59.74
2019-05-23T22:33:53.749Z,60.03
2019-05-23T22:36:23.485Z,60.02
2019-05-23T22:38:53.115Z,60.05
2019-05-23T22:41:22.573Z,60.39
2019-05-23T22:43:52.020Z,59.75
2019-05-23T22:46:22.689Z,61.66
2019-05-23T22:48:52.208Z,61.68
2019-05-23T22:51:21.665Z,60.86
2019-05-23T22:53:51.051Z,60.99
2019-05-23T22:56:21.212Z,61.42
2019-05-23T22:58:51.254Z,59.67
2019-05-23T23:01:23.105Z,58.82
2019-05-23T23:03:52.757Z,58.46
2019-05-23T23:06:22.487Z,60.23
2019-05-23T23:08:52.092Z,60.27
2019-05-23T23:11:22.188Z,60.58
2019-05-23T23:13:52.692Z,60.45
2019-05-23T23:16:22.692Z,60.99
2019-05-23T23:18:53.020Z,62.50
2019-05-23T23:21:23.276Z,63.65
2019-05-23T23:23:53.520Z,62.98
2019-05-23T23:26:23.727Z,63.00
2019-05-23T23:28:54.173Z,64.29
2019-05-23T23:31:24.458Z,64.54
2019-05-23T23:33:54.607Z,64.38
2019-05-23T23:36:25.091Z,63.82
2019-05-23T23:38:55.133Z,64.37
2019-05-23T23:41:25.201Z,64.87
2019-05-23T23:43:59.360Z,65.67
2019-05-23T23:46:45.959Z,66.93
2019-05-23T23:49:33.124Z,66.89
2019-05-23T23:52:20.383Z,65.18
2019-05-23T23:55:08.055Z,65.87
2019-05-23T23:57:55.397Z,66.24
